Portada
METAR-TAF:

METAR-TAF

Aeroports :

Lake Argyle, Austràlia

latitud: 16-38-13S, longitud: 128-27-05E, altitud: 159 m

Observació

L'informe es va fer fa 32 minuts, a les 13:00 UTC
Vent 8 kt del Est/Nord-Est
Temperatura 34°C
Humitat 41%
Pressió 1006 hPa
Visibilitat 10 km o més

METAR: YARG 261300Z AUTO 07008KT 9999 // NCD 34/19 Q1006

Hora: 21:32 (13:32 UTC)


TAF: manca

Observacions i pronòstics meteorològics de més de 4000 aeroports (METAR i TAF).

Les estacions disponibles són els punts grocs i vermells al mapa.

Posi el ratolí al punt desitjat per veure el nom de l'estació.

Feu clic per veure les observacions i els pronòstics meteorològics.

Per canviar el mapa: feu clic els botons verds amb una creu de color negre per apropar; al botó verd amb un guió per allunyar la imatge; o en les fletxes verdes per a mapes adjacents.


METAR-TAF: